<?xml version="1.0" encoding="UTF-8" standalone="no" ?>
<gpx xmlns="http://www.topografix.com/GPX/1/1" xmlns:xsi="http://www.w3.org/2001/XMLSchema-instance" xsi:schemaLocation="http://www.topografix.com/GPX/1/1 http://www.topografix.com/GPX/1/1/gpx.xsd" version="1.1" creator="VisuGPX - https://www.visugpx.com">
  <metadata>
    <name>La Montagne - Bouguenais</name>
    <desc><![CDATA[Circuit au départ Super U de la Montagne]]></desc>
  </metadata>
  <trk>
    <name><![CDATA[2011-11-13-01]]></name>
    <trkseg>
      <trkpt lat="47.17621" lon="-1.67717">
        <ele>34</ele>
        <time>2011-11-13T07:26:49Z</time>
      </trkpt>
      <trkpt lat="47.17624" lon="-1.67694">
        <ele>34</ele>
        <time>2011-11-13T07:27:09Z</time>
      </trkpt>
      <trkpt lat="47.17618" lon="-1.67669">
        <ele>35</ele>
        <time>2011-11-13T07:27:23Z</time>
      </trkpt>
      <trkpt lat="47.17609" lon="-1.67647">
        <ele>37</ele>
        <time>2011-11-13T07:27:33Z</time>
      </trkpt>
      <trkpt lat="47.17609" lon="-1.67622">
        <ele>37</ele>
        <time>2011-11-13T07:27:53Z</time>
      </trkpt>
      <trkpt lat="47.17606" lon="-1.67598">
        <ele>38</ele>
        <time>2011-11-13T07:28:13Z</time>
      </trkpt>
      <trkpt lat="47.17607" lon="-1.67576">
        <ele>39</ele>
        <time>2011-11-13T07:28:29Z</time>
      </trkpt>
      <trkpt lat="47.17621" lon="-1.67567">
        <ele>38</ele>
        <time>2011-11-13T07:28:32Z</time>
      </trkpt>
      <trkpt lat="47.17611" lon="-1.67545">
        <ele>38</ele>
        <time>2011-11-13T07:28:45Z</time>
      </trkpt>
      <trkpt lat="47.17597" lon="-1.67537">
        <ele>39</ele>
        <time>2011-11-13T07:28:56Z</time>
      </trkpt>
      <trkpt lat="47.17583" lon="-1.67539">
        <ele>41</ele>
        <time>2011-11-13T07:28:57Z</time>
      </trkpt>
      <trkpt lat="47.17575" lon="-1.6754">
        <ele>41</ele>
        <time>2011-11-13T07:28:58Z</time>
      </trkpt>
      <trkpt lat="47.17613" lon="-1.67529">
        <ele>38</ele>
        <time>2011-11-13T07:28:59Z</time>
      </trkpt>
      <trkpt lat="47.17597" lon="-1.67524">
        <ele>39</ele>
        <time>2011-11-13T07:29:07Z</time>
      </trkpt>
      <trkpt lat="47.17585" lon="-1.67514">
        <ele>39</ele>
        <time>2011-11-13T07:29:16Z</time>
      </trkpt>
      <trkpt lat="47.17567" lon="-1.67509">
        <ele>41</ele>
        <time>2011-11-13T07:29:21Z</time>
      </trkpt>
      <trkpt lat="47.17565" lon="-1.67483">
        <ele>40</ele>
        <time>2011-11-13T07:29:48Z</time>
      </trkpt>
      <trkpt lat="47.17564" lon="-1.67458">
        <ele>40</ele>
        <time>2011-11-13T07:30:06Z</time>
      </trkpt>
      <trkpt lat="47.17555" lon="-1.67436">
        <ele>40</ele>
        <time>2011-11-13T07:30:18Z</time>
      </trkpt>
      <trkpt lat="47.17563" lon="-1.67414">
        <ele>39</ele>
        <time>2011-11-13T07:30:40Z</time>
      </trkpt>
      <trkpt lat="47.17553" lon="-1.67393">
        <ele>39</ele>
        <time>2011-11-13T07:30:56Z</time>
      </trkpt>
      <trkpt lat="47.17546" lon="-1.6737">
        <ele>40</ele>
        <time>2011-11-13T07:31:07Z</time>
      </trkpt>
      <trkpt lat="47.17538" lon="-1.67347">
        <ele>40</ele>
        <time>2011-11-13T07:31:21Z</time>
      </trkpt>
      <trkpt lat="47.17533" lon="-1.67323">
        <ele>40</ele>
        <time>2011-11-13T07:31:39Z</time>
      </trkpt>
      <trkpt lat="47.17527" lon="-1.67299">
        <ele>40</ele>
        <time>2011-11-13T07:31:54Z</time>
      </trkpt>
      <trkpt lat="47.17523" lon="-1.67273">
        <ele>40</ele>
        <time>2011-11-13T07:32:10Z</time>
      </trkpt>
      <trkpt lat="47.17516" lon="-1.6725">
        <ele>40</ele>
        <time>2011-11-13T07:32:26Z</time>
      </trkpt>
      <trkpt lat="47.1751" lon="-1.67226">
        <ele>40</ele>
        <time>2011-11-13T07:32:41Z</time>
      </trkpt>
      <trkpt lat="47.17501" lon="-1.67203">
        <ele>40</ele>
        <time>2011-11-13T07:32:59Z</time>
      </trkpt>
      <trkpt lat="47.17497" lon="-1.67179">
        <ele>40</ele>
        <time>2011-11-13T07:33:17Z</time>
      </trkpt>
      <trkpt lat="47.17491" lon="-1.67154">
        <ele>39</ele>
        <time>2011-11-13T07:33:33Z</time>
      </trkpt>
      <trkpt lat="47.17485" lon="-1.6713">
        <ele>38</ele>
        <time>2011-11-13T07:33:47Z</time>
      </trkpt>
      <trkpt lat="47.1748" lon="-1.67104">
        <ele>37</ele>
        <time>2011-11-13T07:34:02Z</time>
      </trkpt>
      <trkpt lat="47.17474" lon="-1.67081">
        <ele>35</ele>
        <time>2011-11-13T07:34:17Z</time>
      </trkpt>
      <trkpt lat="47.17477" lon="-1.67055">
        <ele>35</ele>
        <time>2011-11-13T07:34:54Z</time>
      </trkpt>
      <trkpt lat="47.1749" lon="-1.6704">
        <ele>34</ele>
        <time>2011-11-13T07:35:04Z</time>
      </trkpt>
      <trkpt lat="47.17503" lon="-1.67023">
        <ele>33</ele>
        <time>2011-11-13T07:35:21Z</time>
      </trkpt>
      <trkpt lat="47.17518" lon="-1.6701">
        <ele>33</ele>
        <time>2011-11-13T07:35:31Z</time>
      </trkpt>
      <trkpt lat="47.17531" lon="-1.66995">
        <ele>32</ele>
        <time>2011-11-13T07:35:46Z</time>
      </trkpt>
      <trkpt lat="47.17545" lon="-1.66979">
        <ele>32</ele>
        <time>2011-11-13T07:36:03Z</time>
      </trkpt>
      <trkpt lat="47.1756" lon="-1.66965">
        <ele>32</ele>
        <time>2011-11-13T07:36:24Z</time>
      </trkpt>
      <trkpt lat="47.17575" lon="-1.66951">
        <ele>32</ele>
        <time>2011-11-13T07:36:40Z</time>
      </trkpt>
      <trkpt lat="47.17588" lon="-1.66936">
        <ele>33</ele>
        <time>2011-11-13T07:36:54Z</time>
      </trkpt>
      <trkpt lat="47.17602" lon="-1.66924">
        <ele>33</ele>
        <time>2011-11-13T07:37:06Z</time>
      </trkpt>
      <trkpt lat="47.17617" lon="-1.66911">
        <ele>34</ele>
        <time>2011-11-13T07:37:24Z</time>
      </trkpt>
      <trkpt lat="47.17632" lon="-1.66896">
        <ele>34</ele>
        <time>2011-11-13T07:37:41Z</time>
      </trkpt>
      <trkpt lat="47.17646" lon="-1.66881">
        <ele>34</ele>
        <time>2011-11-13T07:37:57Z</time>
      </trkpt>
      <trkpt lat="47.17661" lon="-1.66867">
        <ele>34</ele>
        <time>2011-11-13T07:38:12Z</time>
      </trkpt>
      <trkpt lat="47.17675" lon="-1.66851">
        <ele>34</ele>
        <time>2011-11-13T07:38:33Z</time>
      </trkpt>
      <trkpt lat="47.17689" lon="-1.66837">
        <ele>34</ele>
        <time>2011-11-13T07:38:46Z</time>
      </trkpt>
      <trkpt lat="47.17704" lon="-1.66823">
        <ele>33</ele>
        <time>2011-11-13T07:38:59Z</time>
      </trkpt>
      <trkpt lat="47.17718" lon="-1.66811">
        <ele>33</ele>
        <time>2011-11-13T07:39:13Z</time>
      </trkpt>
      <trkpt lat="47.17731" lon="-1.66795">
        <ele>33</ele>
        <time>2011-11-13T07:39:27Z</time>
      </trkpt>
      <trkpt lat="47.17746" lon="-1.66779">
        <ele>33</ele>
        <time>2011-11-13T07:39:43Z</time>
      </trkpt>
      <trkpt lat="47.1776" lon="-1.66766">
        <ele>34</ele>
        <time>2011-11-13T07:39:57Z</time>
      </trkpt>
      <trkpt lat="47.17775" lon="-1.66752">
        <ele>35</ele>
        <time>2011-11-13T07:40:11Z</time>
      </trkpt>
      <trkpt lat="47.17792" lon="-1.66746">
        <ele>35</ele>
        <time>2011-11-13T07:40:26Z</time>
      </trkpt>
      <trkpt lat="47.17808" lon="-1.66737">
        <ele>35</ele>
        <time>2011-11-13T07:40:46Z</time>
      </trkpt>
      <trkpt lat="47.17807" lon="-1.66712">
        <ele>35</ele>
        <time>2011-11-13T07:40:57Z</time>
      </trkpt>
      <trkpt lat="47.17804" lon="-1.66687">
        <ele>35</ele>
        <time>2011-11-13T07:41:09Z</time>
      </trkpt>
      <trkpt lat="47.17801" lon="-1.66662">
        <ele>35</ele>
        <time>2011-11-13T07:41:22Z</time>
      </trkpt>
      <trkpt lat="47.17796" lon="-1.66638">
        <ele>35</ele>
        <time>2011-11-13T07:41:35Z</time>
      </trkpt>
      <trkpt lat="47.17789" lon="-1.66613">
        <ele>34</ele>
        <time>2011-11-13T07:41:50Z</time>
      </trkpt>
      <trkpt lat="47.17782" lon="-1.66589">
        <ele>35</ele>
        <time>2011-11-13T07:42:09Z</time>
      </trkpt>
      <trkpt lat="47.17772" lon="-1.66567">
        <ele>36</ele>
        <time>2011-11-13T07:42:23Z</time>
      </trkpt>
      <trkpt lat="47.17766" lon="-1.66544">
        <ele>37</ele>
        <time>2011-11-13T07:42:40Z</time>
      </trkpt>
      <trkpt lat="47.17759" lon="-1.6652">
        <ele>37</ele>
        <time>2011-11-13T07:42:59Z</time>
      </trkpt>
      <trkpt lat="47.1776" lon="-1.66495">
        <ele>39</ele>
        <time>2011-11-13T07:43:12Z</time>
      </trkpt>
      <trkpt lat="47.17757" lon="-1.66471">
        <ele>38</ele>
        <time>2011-11-13T07:43:27Z</time>
      </trkpt>
      <trkpt lat="47.17748" lon="-1.66449">
        <ele>38</ele>
        <time>2011-11-13T07:43:40Z</time>
      </trkpt>
      <trkpt lat="47.17746" lon="-1.66423">
        <ele>37</ele>
        <time>2011-11-13T07:43:56Z</time>
      </trkpt>
      <trkpt lat="47.1774" lon="-1.664">
        <ele>37</ele>
        <time>2011-11-13T07:44:10Z</time>
      </trkpt>
      <trkpt lat="47.17731" lon="-1.66377">
        <ele>36</ele>
        <time>2011-11-13T07:44:25Z</time>
      </trkpt>
      <trkpt lat="47.17728" lon="-1.66352">
        <ele>36</ele>
        <time>2011-11-13T07:44:45Z</time>
      </trkpt>
      <trkpt lat="47.17727" lon="-1.66326">
        <ele>35</ele>
        <time>2011-11-13T07:45:01Z</time>
      </trkpt>
      <trkpt lat="47.17721" lon="-1.66303">
        <ele>35</ele>
        <time>2011-11-13T07:45:16Z</time>
      </trkpt>
      <trkpt lat="47.17718" lon="-1.66278">
        <ele>35</ele>
        <time>2011-11-13T07:45:31Z</time>
      </trkpt>
      <trkpt lat="47.17716" lon="-1.66253">
        <ele>34</ele>
        <time>2011-11-13T07:45:47Z</time>
      </trkpt>
      <trkpt lat="47.17711" lon="-1.66229">
        <ele>34</ele>
        <time>2011-11-13T07:46:01Z</time>
      </trkpt>
      <trkpt lat="47.17705" lon="-1.66204">
        <ele>33</ele>
        <time>2011-11-13T07:46:19Z</time>
      </trkpt>
      <trkpt lat="47.17703" lon="-1.6618">
        <ele>33</ele>
        <time>2011-11-13T07:46:36Z</time>
      </trkpt>
      <trkpt lat="47.17697" lon="-1.66154">
        <ele>33</ele>
        <time>2011-11-13T07:46:51Z</time>
      </trkpt>
      <trkpt lat="47.17697" lon="-1.66129">
        <ele>33</ele>
        <time>2011-11-13T07:47:07Z</time>
      </trkpt>
      <trkpt lat="47.17696" lon="-1.66103">
        <ele>33</ele>
        <time>2011-11-13T07:47:24Z</time>
      </trkpt>
      <trkpt lat="47.17687" lon="-1.66081">
        <ele>33</ele>
        <time>2011-11-13T07:47:39Z</time>
      </trkpt>
      <trkpt lat="47.17682" lon="-1.66056">
        <ele>33</ele>
        <time>2011-11-13T07:47:55Z</time>
      </trkpt>
      <trkpt lat="47.17675" lon="-1.66033">
        <ele>33</ele>
        <time>2011-11-13T07:48:09Z</time>
      </trkpt>
      <trkpt lat="47.17669" lon="-1.66008">
        <ele>33</ele>
        <time>2011-11-13T07:48:27Z</time>
      </trkpt>
      <trkpt lat="47.17663" lon="-1.65985">
        <ele>33</ele>
        <time>2011-11-13T07:48:38Z</time>
      </trkpt>
      <trkpt lat="47.17655" lon="-1.65963">
        <ele>32</ele>
        <time>2011-11-13T07:48:51Z</time>
      </trkpt>
      <trkpt lat="47.17645" lon="-1.65941">
        <ele>32</ele>
        <time>2011-11-13T07:49:05Z</time>
      </trkpt>
      <trkpt lat="47.17634" lon="-1.65923">
        <ele>32</ele>
        <time>2011-11-13T07:49:21Z</time>
      </trkpt>
      <trkpt lat="47.17623" lon="-1.65903">
        <ele>33</ele>
        <time>2011-11-13T07:49:35Z</time>
      </trkpt>
      <trkpt lat="47.17615" lon="-1.65881">
        <ele>33</ele>
        <time>2011-11-13T07:49:49Z</time>
      </trkpt>
      <trkpt lat="47.17606" lon="-1.65861">
        <ele>33</ele>
        <time>2011-11-13T07:50:02Z</time>
      </trkpt>
      <trkpt lat="47.17596" lon="-1.65839">
        <ele>33</ele>
        <time>2011-11-13T07:50:16Z</time>
      </trkpt>
      <trkpt lat="47.17587" lon="-1.65816">
        <ele>33</ele>
        <time>2011-11-13T07:50:31Z</time>
      </trkpt>
      <trkpt lat="47.17578" lon="-1.65795">
        <ele>32</ele>
        <time>2011-11-13T07:50:44Z</time>
      </trkpt>
      <trkpt lat="47.17572" lon="-1.6577">
        <ele>32</ele>
        <time>2011-11-13T07:51:05Z</time>
      </trkpt>
      <trkpt lat="47.1757" lon="-1.65745">
        <ele>32</ele>
        <time>2011-11-13T07:51:21Z</time>
      </trkpt>
      <trkpt lat="47.17562" lon="-1.65722">
        <ele>32</ele>
        <time>2011-11-13T07:51:37Z</time>
      </trkpt>
      <trkpt lat="47.17561" lon="-1.65696">
        <ele>32</ele>
        <time>2011-11-13T07:51:54Z</time>
      </trkpt>
      <trkpt lat="47.17557" lon="-1.65671">
        <ele>32</ele>
        <time>2011-11-13T07:52:08Z</time>
      </trkpt>
      <trkpt lat="47.17553" lon="-1.65647">
        <ele>32</ele>
        <time>2011-11-13T07:52:21Z</time>
      </trkpt>
      <trkpt lat="47.17546" lon="-1.65622">
        <ele>32</ele>
        <time>2011-11-13T07:52:36Z</time>
      </trkpt>
      <trkpt lat="47.17545" lon="-1.65596">
        <ele>32</ele>
        <time>2011-11-13T07:52:50Z</time>
      </trkpt>
      <trkpt lat="47.17542" lon="-1.65572">
        <ele>32</ele>
        <time>2011-11-13T07:53:05Z</time>
      </trkpt>
      <trkpt lat="47.1754" lon="-1.65546">
        <ele>32</ele>
        <time>2011-11-13T07:53:27Z</time>
      </trkpt>
      <trkpt lat="47.17537" lon="-1.65522">
        <ele>32</ele>
        <time>2011-11-13T07:53:40Z</time>
      </trkpt>
      <trkpt lat="47.17533" lon="-1.65497">
        <ele>32</ele>
        <time>2011-11-13T07:53:56Z</time>
      </trkpt>
      <trkpt lat="47.17537" lon="-1.65472">
        <ele>32</ele>
        <time>2011-11-13T07:54:11Z</time>
      </trkpt>
      <trkpt lat="47.17536" lon="-1.65446">
        <ele>32</ele>
        <time>2011-11-13T07:54:25Z</time>
      </trkpt>
      <trkpt lat="47.17535" lon="-1.65421">
        <ele>32</ele>
        <time>2011-11-13T07:54:44Z</time>
      </trkpt>
      <trkpt lat="47.17527" lon="-1.65399">
        <ele>32</ele>
        <time>2011-11-13T07:54:55Z</time>
      </trkpt>
      <trkpt lat="47.17522" lon="-1.65375">
        <ele>32</ele>
        <time>2011-11-13T07:55:08Z</time>
      </trkpt>
      <trkpt lat="47.17515" lon="-1.65352">
        <ele>32</ele>
        <time>2011-11-13T07:55:22Z</time>
      </trkpt>
      <trkpt lat="47.17516" lon="-1.65326">
        <ele>33</ele>
        <time>2011-11-13T07:56:02Z</time>
      </trkpt>
      <trkpt lat="47.17531" lon="-1.65311">
        <ele>33</ele>
        <time>2011-11-13T07:56:23Z</time>
      </trkpt>
      <trkpt lat="47.17544" lon="-1.65298">
        <ele>33</ele>
        <time>2011-11-13T07:56:38Z</time>
      </trkpt>
      <trkpt lat="47.17558" lon="-1.6528">
        <ele>33</ele>
        <time>2011-11-13T07:56:51Z</time>
      </trkpt>
      <trkpt lat="47.17568" lon="-1.65261">
        <ele>33</ele>
        <time>2011-11-13T07:57:05Z</time>
      </trkpt>
      <trkpt lat="47.17582" lon="-1.65245">
        <ele>34</ele>
        <time>2011-11-13T07:57:17Z</time>
      </trkpt>
      <trkpt lat="47.17594" lon="-1.65227">
        <ele>35</ele>
        <time>2011-11-13T07:57:30Z</time>
      </trkpt>
      <trkpt lat="47.17604" lon="-1.65206">
        <ele>36</ele>
        <time>2011-11-13T07:57:44Z</time>
      </trkpt>
      <trkpt lat="47.17611" lon="-1.65182">
        <ele>36</ele>
        <time>2011-11-13T07:58:00Z</time>
      </trkpt>
      <trkpt lat="47.17621" lon="-1.65161">
        <ele>37</ele>
        <time>2011-11-13T07:58:20Z</time>
      </trkpt>
      <trkpt lat="47.17634" lon="-1.65143">
        <ele>37</ele>
        <time>2011-11-13T07:58:38Z</time>
      </trkpt>
      <trkpt lat="47.17646" lon="-1.65123">
        <ele>38</ele>
        <time>2011-11-13T07:58:59Z</time>
      </trkpt>
      <trkpt lat="47.17655" lon="-1.65101">
        <ele>38</ele>
        <time>2011-11-13T07:59:11Z</time>
      </trkpt>
      <trkpt lat="47.17664" lon="-1.65079">
        <ele>39</ele>
        <time>2011-11-13T07:59:22Z</time>
      </trkpt>
      <trkpt lat="47.17675" lon="-1.65059">
        <ele>39</ele>
        <time>2011-11-13T07:59:34Z</time>
      </trkpt>
      <trkpt lat="47.17688" lon="-1.65042">
        <ele>39</ele>
        <time>2011-11-13T07:59:53Z</time>
      </trkpt>
      <trkpt lat="47.177" lon="-1.65025">
        <ele>39</ele>
        <time>2011-11-13T08:00:09Z</time>
      </trkpt>
      <trkpt lat="47.17712" lon="-1.65007">
        <ele>39</ele>
        <time>2011-11-13T08:00:22Z</time>
      </trkpt>
      <trkpt lat="47.17724" lon="-1.6499">
        <ele>38</ele>
        <time>2011-11-13T08:00:33Z</time>
      </trkpt>
      <trkpt lat="47.17737" lon="-1.64974">
        <ele>38</ele>
        <time>2011-11-13T08:00:47Z</time>
      </trkpt>
      <trkpt lat="47.17752" lon="-1.6496">
        <ele>38</ele>
        <time>2011-11-13T08:01:06Z</time>
      </trkpt>
      <trkpt lat="47.17764" lon="-1.64942">
        <ele>37</ele>
        <time>2011-11-13T08:01:19Z</time>
      </trkpt>
      <trkpt lat="47.17776" lon="-1.64923">
        <ele>37</ele>
        <time>2011-11-13T08:01:33Z</time>
      </trkpt>
      <trkpt lat="47.17787" lon="-1.64904">
        <ele>37</ele>
        <time>2011-11-13T08:01:50Z</time>
      </trkpt>
      <trkpt lat="47.178" lon="-1.64885">
        <ele>37</ele>
        <time>2011-11-13T08:02:08Z</time>
      </trkpt>
      <trkpt lat="47.17811" lon="-1.64866">
        <ele>37</ele>
        <time>2011-11-13T08:02:21Z</time>
      </trkpt>
      <trkpt lat="47.17817" lon="-1.64843">
        <ele>37</ele>
        <time>2011-11-13T08:02:38Z</time>
      </trkpt>
      <trkpt lat="47.17814" lon="-1.64819">
        <ele>37</ele>
        <time>2011-11-13T08:02:51Z</time>
      </trkpt>
      <trkpt lat="47.1781" lon="-1.64793">
        <ele>37</ele>
        <time>2011-11-13T08:03:05Z</time>
      </trkpt>
      <trkpt lat="47.17799" lon="-1.64773">
        <ele>38</ele>
        <time>2011-11-13T08:03:21Z</time>
      </trkpt>
      <trkpt lat="47.17794" lon="-1.64748">
        <ele>38</ele>
        <time>2011-11-13T08:03:36Z</time>
      </trkpt>
      <trkpt lat="47.17786" lon="-1.64727">
        <ele>38</ele>
        <time>2011-11-13T08:03:51Z</time>
      </trkpt>
      <trkpt lat="47.17775" lon="-1.64706">
        <ele>38</ele>
        <time>2011-11-13T08:04:04Z</time>
      </trkpt>
      <trkpt lat="47.1776" lon="-1.64693">
        <ele>38</ele>
        <time>2011-11-13T08:04:19Z</time>
      </trkpt>
      <trkpt lat="47.17756" lon="-1.64668">
        <ele>38</ele>
        <time>2011-11-13T08:04:35Z</time>
      </trkpt>
      <trkpt lat="47.17748" lon="-1.64646">
        <ele>37</ele>
        <time>2011-11-13T08:04:52Z</time>
      </trkpt>
      <trkpt lat="47.17734" lon="-1.64631">
        <ele>36</ele>
        <time>2011-11-13T08:05:03Z</time>
      </trkpt>
      <trkpt lat="47.17725" lon="-1.6461">
        <ele>36</ele>
        <time>2011-11-13T08:05:19Z</time>
      </trkpt>
      <trkpt lat="47.17719" lon="-1.64586">
        <ele>36</ele>
        <time>2011-11-13T08:05:31Z</time>
      </trkpt>
      <trkpt lat="47.17706" lon="-1.64567">
        <ele>35</ele>
        <time>2011-11-13T08:05:45Z</time>
      </trkpt>
      <trkpt lat="47.17705" lon="-1.64541">
        <ele>35</ele>
        <time>2011-11-13T08:05:59Z</time>
      </trkpt>
      <trkpt lat="47.17703" lon="-1.64516">
        <ele>35</ele>
        <time>2011-11-13T08:06:11Z</time>
      </trkpt>
      <trkpt lat="47.17696" lon="-1.64493">
        <ele>36</ele>
        <time>2011-11-13T08:06:23Z</time>
      </trkpt>
      <trkpt lat="47.17689" lon="-1.6447">
        <ele>36</ele>
        <time>2011-11-13T08:06:37Z</time>
      </trkpt>
      <trkpt lat="47.17682" lon="-1.64446">
        <ele>37</ele>
        <time>2011-11-13T08:06:56Z</time>
      </trkpt>
      <trkpt lat="47.17669" lon="-1.64427">
        <ele>38</ele>
        <time>2011-11-13T08:07:20Z</time>
      </trkpt>
      <trkpt lat="47.17653" lon="-1.64437">
        <ele>38</ele>
        <time>2011-11-13T08:07:50Z</time>
      </trkpt>
      <trkpt lat="47.17658" lon="-1.64413">
        <ele>39</ele>
        <time>2011-11-13T08:09:02Z</time>
      </trkpt>
      <trkpt lat="47.17657" lon="-1.64388">
        <ele>39</ele>
        <time>2011-11-13T08:09:19Z</time>
      </trkpt>
      <trkpt lat="47.17663" lon="-1.64364">
        <ele>38</ele>
        <time>2011-11-13T08:09:41Z</time>
      </trkpt>
      <trkpt lat="47.17659" lon="-1.64339">
        <ele>36</ele>
        <time>2011-11-13T08:09:54Z</time>
      </trkpt>
      <trkpt lat="47.17655" lon="-1.64313">
        <ele>36</ele>
        <time>2011-11-13T08:10:06Z</time>
      </trkpt>
      <trkpt lat="47.17653" lon="-1.64288">
        <ele>35</ele>
        <time>2011-11-13T08:10:18Z</time>
      </trkpt>
      <trkpt lat="47.17644" lon="-1.64266">
        <ele>35</ele>
        <time>2011-11-13T08:10:33Z</time>
      </trkpt>
      <trkpt lat="47.17633" lon="-1.64246">
        <ele>34</ele>
        <time>2011-11-13T08:10:48Z</time>
      </trkpt>
      <trkpt lat="47.17624" lon="-1.64224">
        <ele>33</ele>
        <time>2011-11-13T08:11:05Z</time>
      </trkpt>
      <trkpt lat="47.17611" lon="-1.64208">
        <ele>33</ele>
        <time>2011-11-13T08:11:23Z</time>
      </trkpt>
      <trkpt lat="47.176" lon="-1.64187">
        <ele>33</ele>
        <time>2011-11-13T08:11:43Z</time>
      </trkpt>
      <trkpt lat="47.17584" lon="-1.64177">
        <ele>33</ele>
        <time>2011-11-13T08:11:54Z</time>
      </trkpt>
      <trkpt lat="47.17572" lon="-1.64159">
        <ele>32</ele>
        <time>2011-11-13T08:12:07Z</time>
      </trkpt>
      <trkpt lat="47.17557" lon="-1.64146">
        <ele>31</ele>
        <time>2011-11-13T08:12:27Z</time>
      </trkpt>
      <trkpt lat="47.17541" lon="-1.64136">
        <ele>30</ele>
        <time>2011-11-13T08:12:43Z</time>
      </trkpt>
      <trkpt lat="47.17527" lon="-1.64122">
        <ele>30</ele>
        <time>2011-11-13T08:13:00Z</time>
      </trkpt>
      <trkpt lat="47.17512" lon="-1.64107">
        <ele>29</ele>
        <time>2011-11-13T08:13:17Z</time>
      </trkpt>
      <trkpt lat="47.17496" lon="-1.64098">
        <ele>28</ele>
        <time>2011-11-13T08:13:33Z</time>
      </trkpt>
      <trkpt lat="47.17489" lon="-1.64074">
        <ele>26</ele>
        <time>2011-11-13T08:13:58Z</time>
      </trkpt>
      <trkpt lat="47.17492" lon="-1.64049">
        <ele>25</ele>
        <time>2011-11-13T08:14:14Z</time>
      </trkpt>
      <trkpt lat="47.1749" lon="-1.64023">
        <ele>24</ele>
        <time>2011-11-13T08:14:28Z</time>
      </trkpt>
      <trkpt lat="47.17479" lon="-1.64004">
        <ele>24</ele>
        <time>2011-11-13T08:14:43Z</time>
      </trkpt>
      <trkpt lat="47.17474" lon="-1.6398">
        <ele>23</ele>
        <time>2011-11-13T08:15:00Z</time>
      </trkpt>
      <trkpt lat="47.17472" lon="-1.63956">
        <ele>23</ele>
        <time>2011-11-13T08:15:15Z</time>
      </trkpt>
      <trkpt lat="47.17472" lon="-1.63931">
        <ele>23</ele>
        <time>2011-11-13T08:15:31Z</time>
      </trkpt>
      <trkpt lat="47.1747" lon="-1.63905">
        <ele>23</ele>
        <time>2011-11-13T08:15:50Z</time>
      </trkpt>
      <trkpt lat="47.17477" lon="-1.63882">
        <ele>24</ele>
        <time>2011-11-13T08:16:10Z</time>
      </trkpt>
      <trkpt lat="47.17489" lon="-1.63863">
        <ele>24</ele>
        <time>2011-11-13T08:16:30Z</time>
      </trkpt>
      <trkpt lat="47.17498" lon="-1.63842">
        <ele>25</ele>
        <time>2011-11-13T08:16:45Z</time>
      </trkpt>
      <trkpt lat="47.1751" lon="-1.63822">
        <ele>25</ele>
        <time>2011-11-13T08:17:02Z</time>
      </trkpt>
      <trkpt lat="47.17525" lon="-1.63809">
        <ele>24</ele>
        <time>2011-11-13T08:17:22Z</time>
      </trkpt>
      <trkpt lat="47.17538" lon="-1.63791">
        <ele>25</ele>
        <time>2011-11-13T08:17:43Z</time>
      </trkpt>
      <trkpt lat="47.17552" lon="-1.63776">
        <ele>25</ele>
        <time>2011-11-13T08:18:03Z</time>
      </trkpt>
      <trkpt lat="47.17561" lon="-1.63754">
        <ele>25</ele>
        <time>2011-11-13T08:18:17Z</time>
      </trkpt>
      <trkpt lat="47.1757" lon="-1.63734">
        <ele>26</ele>
        <time>2011-11-13T08:18:27Z</time>
      </trkpt>
      <trkpt lat="47.17578" lon="-1.63711">
        <ele>26</ele>
        <time>2011-11-13T08:18:41Z</time>
      </trkpt>
      <trkpt lat="47.17587" lon="-1.63689">
        <ele>25</ele>
        <time>2011-11-13T08:18:53Z</time>
      </trkpt>
      <trkpt lat="47.17596" lon="-1.63666">
        <ele>25</ele>
        <time>2011-11-13T08:19:08Z</time>
      </trkpt>
      <trkpt lat="47.17605" lon="-1.63645">
        <ele>24</ele>
        <time>2011-11-13T08:19:23Z</time>
      </trkpt>
      <trkpt lat="47.17615" lon="-1.63625">
        <ele>24</ele>
        <time>2011-11-13T08:19:38Z</time>
      </trkpt>
      <trkpt lat="47.17629" lon="-1.63608">
        <ele>24</ele>
        <time>2011-11-13T08:19:55Z</time>
      </trkpt>
      <trkpt lat="47.17642" lon="-1.63591">
        <ele>24</ele>
        <time>2011-11-13T08:20:15Z</time>
      </trkpt>
      <trkpt lat="47.17656" lon="-1.63577">
        <ele>23</ele>
        <time>2011-11-13T08:20:36Z</time>
      </trkpt>
      <trkpt lat="47.17669" lon="-1.6356">
        <ele>20</ele>
        <time>2011-11-13T08:20:53Z</time>
      </trkpt>
      <trkpt lat="47.17682" lon="-1.63542">
        <ele>19</ele>
        <time>2011-11-13T08:21:08Z</time>
      </trkpt>
      <trkpt lat="47.17696" lon="-1.63527">
        <ele>18</ele>
        <time>2011-11-13T08:21:24Z</time>
      </trkpt>
      <trkpt lat="47.17711" lon="-1.63513">
        <ele>17</ele>
        <time>2011-11-13T08:21:41Z</time>
      </trkpt>
      <trkpt lat="47.17728" lon="-1.63504">
        <ele>16</ele>
        <time>2011-11-13T08:22:05Z</time>
      </trkpt>
      <trkpt lat="47.17742" lon="-1.6349">
        <ele>15</ele>
        <time>2011-11-13T08:22:22Z</time>
      </trkpt>
      <trkpt lat="47.17748" lon="-1.63465">
        <ele>15</ele>
        <time>2011-11-13T08:22:37Z</time>
      </trkpt>
      <trkpt lat="47.17755" lon="-1.63442">
        <ele>12</ele>
        <time>2011-11-13T08:22:52Z</time>
      </trkpt>
      <trkpt lat="47.17761" lon="-1.63417">
        <ele>12</ele>
        <time>2011-11-13T08:23:17Z</time>
      </trkpt>
      <trkpt lat="47.17778" lon="-1.63422">
        <ele>11</ele>
        <time>2011-11-13T08:23:35Z</time>
      </trkpt>
      <trkpt lat="47.17795" lon="-1.63431">
        <ele>11</ele>
        <time>2011-11-13T08:23:52Z</time>
      </trkpt>
      <trkpt lat="47.17807" lon="-1.63449">
        <ele>11</ele>
        <time>2011-11-13T08:24:11Z</time>
      </trkpt>
      <trkpt lat="47.17812" lon="-1.63474">
        <ele>11</ele>
        <time>2011-11-13T08:24:32Z</time>
      </trkpt>
      <trkpt lat="47.17823" lon="-1.63494">
        <ele>10</ele>
        <time>2011-11-13T08:24:57Z</time>
      </trkpt>
      <trkpt lat="47.17835" lon="-1.63511">
        <ele>9</ele>
        <time>2011-11-13T08:25:13Z</time>
      </trkpt>
      <trkpt lat="47.17847" lon="-1.63531">
        <ele>8</ele>
        <time>2011-11-13T08:25:26Z</time>
      </trkpt>
      <trkpt lat="47.1786" lon="-1.63546">
        <ele>8</ele>
        <time>2011-11-13T08:25:40Z</time>
      </trkpt>
      <trkpt lat="47.17872" lon="-1.63565">
        <ele>8</ele>
        <time>2011-11-13T08:25:58Z</time>
      </trkpt>
      <trkpt lat="47.17881" lon="-1.63587">
        <ele>9</ele>
        <time>2011-11-13T08:26:15Z</time>
      </trkpt>
      <trkpt lat="47.1789" lon="-1.63608">
        <ele>9</ele>
        <time>2011-11-13T08:26:29Z</time>
      </trkpt>
      <trkpt lat="47.17899" lon="-1.63631">
        <ele>9</ele>
        <time>2011-11-13T08:26:48Z</time>
      </trkpt>
      <trkpt lat="47.17912" lon="-1.63647">
        <ele>10</ele>
        <time>2011-11-13T08:27:05Z</time>
      </trkpt>
      <trkpt lat="47.17924" lon="-1.63668">
        <ele>10</ele>
        <time>2011-11-13T08:27:22Z</time>
      </trkpt>
      <trkpt lat="47.17933" lon="-1.63687">
        <ele>11</ele>
        <time>2011-11-13T08:27:36Z</time>
      </trkpt>
      <trkpt lat="47.17945" lon="-1.63707">
        <ele>11</ele>
        <time>2011-11-13T08:27:56Z</time>
      </trkpt>
      <trkpt lat="47.17955" lon="-1.63729">
        <ele>12</ele>
        <time>2011-11-13T08:28:14Z</time>
      </trkpt>
      <trkpt lat="47.17965" lon="-1.6375">
        <ele>15</ele>
        <time>2011-11-13T08:28:40Z</time>
      </trkpt>
      <trkpt lat="47.17975" lon="-1.63771">
        <ele>15</ele>
        <time>2011-11-13T08:28:54Z</time>
      </trkpt>
      <trkpt lat="47.17981" lon="-1.63796">
        <ele>16</ele>
        <time>2011-11-13T08:29:10Z</time>
      </trkpt>
      <trkpt lat="47.17989" lon="-1.63819">
        <ele>17</ele>
        <time>2011-11-13T08:29:29Z</time>
      </trkpt>
      <trkpt lat="47.17999" lon="-1.63839">
        <ele>19</ele>
        <time>2011-11-13T08:29:43Z</time>
      </trkpt>
      <trkpt lat="47.18011" lon="-1.63854">
        <ele>17</ele>
        <time>2011-11-13T08:29:56Z</time>
      </trkpt>
      <trkpt lat="47.18025" lon="-1.6387">
        <ele>17</ele>
        <time>2011-11-13T08:30:15Z</time>
      </trkpt>
      <trkpt lat="47.18035" lon="-1.63891">
        <ele>17</ele>
        <time>2011-11-13T08:30:33Z</time>
      </trkpt>
      <trkpt lat="47.18045" lon="-1.63913">
        <ele>17</ele>
        <time>2011-11-13T08:30:49Z</time>
      </trkpt>
      <trkpt lat="47.18052" lon="-1.63935">
        <ele>19</ele>
        <time>2011-11-13T08:31:05Z</time>
      </trkpt>
      <trkpt lat="47.18061" lon="-1.63957">
        <ele>20</ele>
        <time>2011-11-13T08:31:20Z</time>
      </trkpt>
      <trkpt lat="47.18067" lon="-1.63981">
        <ele>20</ele>
        <time>2011-11-13T08:31:37Z</time>
      </trkpt>
      <trkpt lat="47.18078" lon="-1.64001">
        <ele>20</ele>
        <time>2011-11-13T08:31:52Z</time>
      </trkpt>
      <trkpt lat="47.18085" lon="-1.64024">
        <ele>17</ele>
        <time>2011-11-13T08:32:07Z</time>
      </trkpt>
      <trkpt lat="47.18092" lon="-1.64048">
        <ele>17</ele>
        <time>2011-11-13T08:32:23Z</time>
      </trkpt>
      <trkpt lat="47.18096" lon="-1.64073">
        <ele>19</ele>
        <time>2011-11-13T08:32:40Z</time>
      </trkpt>
      <trkpt lat="47.18101" lon="-1.64098">
        <ele>22</ele>
        <time>2011-11-13T08:32:56Z</time>
      </trkpt>
      <trkpt lat="47.18115" lon="-1.64112">
        <ele>21</ele>
        <time>2011-11-13T08:33:16Z</time>
      </trkpt>
      <trkpt lat="47.1813" lon="-1.64128">
        <ele>21</ele>
        <time>2011-11-13T08:33:41Z</time>
      </trkpt>
      <trkpt lat="47.18137" lon="-1.64152">
        <ele>22</ele>
        <time>2011-11-13T08:34:12Z</time>
      </trkpt>
      <trkpt lat="47.18143" lon="-1.64176">
        <ele>25</ele>
        <time>2011-11-13T08:35:08Z</time>
      </trkpt>
      <trkpt lat="47.18148" lon="-1.64201">
        <ele>26</ele>
        <time>2011-11-13T08:35:37Z</time>
      </trkpt>
      <trkpt lat="47.18154" lon="-1.64225">
        <ele>27</ele>
        <time>2011-11-13T08:35:57Z</time>
      </trkpt>
      <trkpt lat="47.18163" lon="-1.64247">
        <ele>27</ele>
        <time>2011-11-13T08:36:10Z</time>
      </trkpt>
      <trkpt lat="47.18168" lon="-1.64272">
        <ele>23</ele>
        <time>2011-11-13T08:36:31Z</time>
      </trkpt>
      <trkpt lat="47.18175" lon="-1.64296">
        <ele>23</ele>
        <time>2011-11-13T08:36:48Z</time>
      </trkpt>
      <trkpt lat="47.18183" lon="-1.64319">
        <ele>25</ele>
        <time>2011-11-13T08:37:04Z</time>
      </trkpt>
      <trkpt lat="47.1819" lon="-1.64343">
        <ele>27</ele>
        <time>2011-11-13T08:37:22Z</time>
      </trkpt>
      <trkpt lat="47.18196" lon="-1.64366">
        <ele>26</ele>
        <time>2011-11-13T08:37:36Z</time>
      </trkpt>
      <trkpt lat="47.18205" lon="-1.64386">
        <ele>25</ele>
        <time>2011-11-13T08:37:47Z</time>
      </trkpt>
      <trkpt lat="47.18217" lon="-1.64405">
        <ele>24</ele>
        <time>2011-11-13T08:38:03Z</time>
      </trkpt>
      <trkpt lat="47.18224" lon="-1.64429">
        <ele>26</ele>
        <time>2011-11-13T08:38:21Z</time>
      </trkpt>
      <trkpt lat="47.18229" lon="-1.64454">
        <ele>27</ele>
        <time>2011-11-13T08:38:40Z</time>
      </trkpt>
      <trkpt lat="47.18231" lon="-1.64479">
        <ele>27</ele>
        <time>2011-11-13T08:38:56Z</time>
      </trkpt>
      <trkpt lat="47.18234" lon="-1.64504">
        <ele>28</ele>
        <time>2011-11-13T08:39:07Z</time>
      </trkpt>
      <trkpt lat="47.18246" lon="-1.64525">
        <ele>28</ele>
        <time>2011-11-13T08:39:25Z</time>
      </trkpt>
      <trkpt lat="47.1825" lon="-1.6455">
        <ele>29</ele>
        <time>2011-11-13T08:39:45Z</time>
      </trkpt>
      <trkpt lat="47.18253" lon="-1.64576">
        <ele>25</ele>
        <time>2011-11-13T08:39:59Z</time>
      </trkpt>
      <trkpt lat="47.18257" lon="-1.64601">
        <ele>23</ele>
        <time>2011-11-13T08:40:14Z</time>
      </trkpt>
      <trkpt lat="47.18262" lon="-1.64626">
        <ele>21</ele>
        <time>2011-11-13T08:40:31Z</time>
      </trkpt>
      <trkpt lat="47.18266" lon="-1.64651">
        <ele>22</ele>
        <time>2011-11-13T08:41:18Z</time>
      </trkpt>
      <trkpt lat="47.18263" lon="-1.64625">
        <ele>21</ele>
        <time>2011-11-13T09:02:34Z</time>
      </trkpt>
      <trkpt lat="47.18276" lon="-1.64643">
        <ele>20</ele>
        <time>2011-11-13T09:05:39Z</time>
      </trkpt>
      <trkpt lat="47.18273" lon="-1.64669">
        <ele>22</ele>
        <time>2011-11-13T09:06:11Z</time>
      </trkpt>
      <trkpt lat="47.18286" lon="-1.64685">
        <ele>19</ele>
        <time>2011-11-13T09:06:46Z</time>
      </trkpt>
      <trkpt lat="47.18304" lon="-1.64683">
        <ele>16</ele>
        <time>2011-11-13T09:07:23Z</time>
      </trkpt>
      <trkpt lat="47.18321" lon="-1.64685">
        <ele>14</ele>
        <time>2011-11-13T09:10:11Z</time>
      </trkpt>
      <trkpt lat="47.18337" lon="-1.64694">
        <ele>7</ele>
        <time>2011-11-13T09:10:27Z</time>
      </trkpt>
      <trkpt lat="47.18353" lon="-1.64705">
        <ele>7</ele>
        <time>2011-11-13T09:10:43Z</time>
      </trkpt>
      <trkpt lat="47.18366" lon="-1.64724">
        <ele>6</ele>
        <time>2011-11-13T09:11:04Z</time>
      </trkpt>
      <trkpt lat="47.18374" lon="-1.64748">
        <ele>6</ele>
        <time>2011-11-13T09:11:20Z</time>
      </trkpt>
      <trkpt lat="47.18386" lon="-1.64766">
        <ele>7</ele>
        <time>2011-11-13T09:11:36Z</time>
      </trkpt>
      <trkpt lat="47.18397" lon="-1.64786">
        <ele>7</ele>
        <time>2011-11-13T09:11:52Z</time>
      </trkpt>
      <trkpt lat="47.18408" lon="-1.64807">
        <ele>7</ele>
        <time>2011-11-13T09:12:08Z</time>
      </trkpt>
      <trkpt lat="47.18414" lon="-1.64831">
        <ele>5</ele>
        <time>2011-11-13T09:12:25Z</time>
      </trkpt>
      <trkpt lat="47.1841" lon="-1.64856">
        <ele>9</ele>
        <time>2011-11-13T09:12:49Z</time>
      </trkpt>
      <trkpt lat="47.18404" lon="-1.6488">
        <ele>10</ele>
        <time>2011-11-13T09:13:05Z</time>
      </trkpt>
      <trkpt lat="47.18399" lon="-1.64904">
        <ele>10</ele>
        <time>2011-11-13T09:13:19Z</time>
      </trkpt>
      <trkpt lat="47.18397" lon="-1.6493">
        <ele>9</ele>
        <time>2011-11-13T09:13:35Z</time>
      </trkpt>
      <trkpt lat="47.1839" lon="-1.64952">
        <ele>10</ele>
        <time>2011-11-13T09:13:58Z</time>
      </trkpt>
      <trkpt lat="47.18387" lon="-1.64978">
        <ele>9</ele>
        <time>2011-11-13T09:14:23Z</time>
      </trkpt>
      <trkpt lat="47.18371" lon="-1.64991">
        <ele>9</ele>
        <time>2011-11-13T09:14:48Z</time>
      </trkpt>
      <trkpt lat="47.1836" lon="-1.65009">
        <ele>10</ele>
        <time>2011-11-13T09:15:01Z</time>
      </trkpt>
      <trkpt lat="47.18355" lon="-1.65034">
        <ele>11</ele>
        <time>2011-11-13T09:15:15Z</time>
      </trkpt>
      <trkpt lat="47.18365" lon="-1.65053">
        <ele>11</ele>
        <time>2011-11-13T09:15:23Z</time>
      </trkpt>
      <trkpt lat="47.18376" lon="-1.65073">
        <ele>11</ele>
        <time>2011-11-13T09:15:37Z</time>
      </trkpt>
      <trkpt lat="47.18391" lon="-1.65085">
        <ele>12</ele>
        <time>2011-11-13T09:15:50Z</time>
      </trkpt>
      <trkpt lat="47.18404" lon="-1.65101">
        <ele>11</ele>
        <time>2011-11-13T09:16:04Z</time>
      </trkpt>
      <trkpt lat="47.18411" lon="-1.65124">
        <ele>12</ele>
        <time>2011-11-13T09:16:21Z</time>
      </trkpt>
      <trkpt lat="47.18417" lon="-1.65148">
        <ele>7</ele>
        <time>2011-11-13T09:16:39Z</time>
      </trkpt>
      <trkpt lat="47.18422" lon="-1.65173">
        <ele>7</ele>
        <time>2011-11-13T09:16:57Z</time>
      </trkpt>
      <trkpt lat="47.18426" lon="-1.65199">
        <ele>6</ele>
        <time>2011-11-13T09:17:13Z</time>
      </trkpt>
      <trkpt lat="47.18435" lon="-1.6522">
        <ele>6</ele>
        <time>2011-11-13T09:17:27Z</time>
      </trkpt>
      <trkpt lat="47.18443" lon="-1.65245">
        <ele>6</ele>
        <time>2011-11-13T09:17:44Z</time>
      </trkpt>
      <trkpt lat="47.18448" lon="-1.6527">
        <ele>6</ele>
        <time>2011-11-13T09:18:05Z</time>
      </trkpt>
      <trkpt lat="47.18448" lon="-1.65296">
        <ele>6</ele>
        <time>2011-11-13T09:18:22Z</time>
      </trkpt>
      <trkpt lat="47.18449" lon="-1.6532">
        <ele>6</ele>
        <time>2011-11-13T09:18:37Z</time>
      </trkpt>
      <trkpt lat="47.18452" lon="-1.65346">
        <ele>7</ele>
        <time>2011-11-13T09:18:53Z</time>
      </trkpt>
      <trkpt lat="47.18456" lon="-1.65371">
        <ele>7</ele>
        <time>2011-11-13T09:19:10Z</time>
      </trkpt>
      <trkpt lat="47.18463" lon="-1.65395">
        <ele>7</ele>
        <time>2011-11-13T09:19:27Z</time>
      </trkpt>
      <trkpt lat="47.1847" lon="-1.65419">
        <ele>9</ele>
        <time>2011-11-13T09:19:45Z</time>
      </trkpt>
      <trkpt lat="47.18479" lon="-1.65441">
        <ele>9</ele>
        <time>2011-11-13T09:20:01Z</time>
      </trkpt>
      <trkpt lat="47.18492" lon="-1.65457">
        <ele>9</ele>
        <time>2011-11-13T09:20:16Z</time>
      </trkpt>
      <trkpt lat="47.18507" lon="-1.6547">
        <ele>7</ele>
        <time>2011-11-13T09:23:46Z</time>
      </trkpt>
      <trkpt lat="47.18522" lon="-1.65483">
        <ele>7</ele>
        <time>2011-11-13T09:24:02Z</time>
      </trkpt>
      <trkpt lat="47.18537" lon="-1.65496">
        <ele>6</ele>
        <time>2011-11-13T09:24:18Z</time>
      </trkpt>
      <trkpt lat="47.1855" lon="-1.65513">
        <ele>8</ele>
        <time>2011-11-13T09:24:34Z</time>
      </trkpt>
      <trkpt lat="47.18564" lon="-1.65528">
        <ele>8</ele>
        <time>2011-11-13T09:24:50Z</time>
      </trkpt>
      <trkpt lat="47.1858" lon="-1.6554">
        <ele>7</ele>
        <time>2011-11-13T09:25:07Z</time>
      </trkpt>
      <trkpt lat="47.18597" lon="-1.65545">
        <ele>5</ele>
        <time>2011-11-13T09:25:25Z</time>
      </trkpt>
      <trkpt lat="47.18614" lon="-1.65552">
        <ele>5</ele>
        <time>2011-11-13T09:25:42Z</time>
      </trkpt>
      <trkpt lat="47.186" lon="-1.65538">
        <ele>5</ele>
        <time>2011-11-13T09:26:37Z</time>
      </trkpt>
      <trkpt lat="47.18582" lon="-1.65535">
        <ele>7</ele>
        <time>2011-11-13T09:26:52Z</time>
      </trkpt>
      <trkpt lat="47.18566" lon="-1.65543">
        <ele>8</ele>
        <time>2011-11-13T09:27:06Z</time>
      </trkpt>
      <trkpt lat="47.18549" lon="-1.65547">
        <ele>9</ele>
        <time>2011-11-13T09:27:20Z</time>
      </trkpt>
      <trkpt lat="47.18536" lon="-1.65565">
        <ele>10</ele>
        <time>2011-11-13T09:27:35Z</time>
      </trkpt>
      <trkpt lat="47.18541" lon="-1.6559">
        <ele>15</ele>
        <time>2011-11-13T09:27:50Z</time>
      </trkpt>
      <trkpt lat="47.18554" lon="-1.65607">
        <ele>14</ele>
        <time>2011-11-13T09:28:06Z</time>
      </trkpt>
      <trkpt lat="47.18565" lon="-1.65627">
        <ele>14</ele>
        <time>2011-11-13T09:28:25Z</time>
      </trkpt>
      <trkpt lat="47.18572" lon="-1.65649">
        <ele>13</ele>
        <time>2011-11-13T09:28:39Z</time>
      </trkpt>
      <trkpt lat="47.18586" lon="-1.65666">
        <ele>9</ele>
        <time>2011-11-13T09:28:57Z</time>
      </trkpt>
      <trkpt lat="47.18592" lon="-1.6569">
        <ele>10</ele>
        <time>2011-11-13T09:29:12Z</time>
      </trkpt>
      <trkpt lat="47.18601" lon="-1.65713">
        <ele>11</ele>
        <time>2011-11-13T09:29:28Z</time>
      </trkpt>
      <trkpt lat="47.18611" lon="-1.65734">
        <ele>12</ele>
        <time>2011-11-13T09:29:49Z</time>
      </trkpt>
      <trkpt lat="47.18622" lon="-1.65755">
        <ele>16</ele>
        <time>2011-11-13T09:30:07Z</time>
      </trkpt>
      <trkpt lat="47.18631" lon="-1.65774">
        <ele>16</ele>
        <time>2011-11-13T09:30:19Z</time>
      </trkpt>
      <trkpt lat="47.18641" lon="-1.65794">
        <ele>16</ele>
        <time>2011-11-13T09:31:02Z</time>
      </trkpt>
      <trkpt lat="47.18654" lon="-1.65813">
        <ele>15</ele>
        <time>2011-11-13T09:31:20Z</time>
      </trkpt>
      <trkpt lat="47.18666" lon="-1.65831">
        <ele>13</ele>
        <time>2011-11-13T09:31:36Z</time>
      </trkpt>
      <trkpt lat="47.1868" lon="-1.65846">
        <ele>12</ele>
        <time>2011-11-13T09:31:47Z</time>
      </trkpt>
      <trkpt lat="47.18695" lon="-1.65858">
        <ele>11</ele>
        <time>2011-11-13T09:32:02Z</time>
      </trkpt>
      <trkpt lat="47.18705" lon="-1.65878">
        <ele>12</ele>
        <time>2011-11-13T09:32:16Z</time>
      </trkpt>
      <trkpt lat="47.18712" lon="-1.65901">
        <ele>12</ele>
        <time>2011-11-13T09:32:33Z</time>
      </trkpt>
      <trkpt lat="47.18716" lon="-1.65926">
        <ele>17</ele>
        <time>2011-11-13T09:32:50Z</time>
      </trkpt>
      <trkpt lat="47.1871" lon="-1.65949">
        <ele>18</ele>
        <time>2011-11-13T09:33:10Z</time>
      </trkpt>
      <trkpt lat="47.1872" lon="-1.6597">
        <ele>18</ele>
        <time>2011-11-13T09:33:23Z</time>
      </trkpt>
      <trkpt lat="47.1873" lon="-1.65991">
        <ele>17</ele>
        <time>2011-11-13T09:33:36Z</time>
      </trkpt>
      <trkpt lat="47.18741" lon="-1.66011">
        <ele>18</ele>
        <time>2011-11-13T09:33:54Z</time>
      </trkpt>
      <trkpt lat="47.18753" lon="-1.6603">
        <ele>12</ele>
        <time>2011-11-13T09:34:10Z</time>
      </trkpt>
      <trkpt lat="47.1876" lon="-1.66053">
        <ele>13</ele>
        <time>2011-11-13T09:34:34Z</time>
      </trkpt>
      <trkpt lat="47.18761" lon="-1.66078">
        <ele>15</ele>
        <time>2011-11-13T09:34:54Z</time>
      </trkpt>
      <trkpt lat="47.18762" lon="-1.66104">
        <ele>15</ele>
        <time>2011-11-13T09:35:15Z</time>
      </trkpt>
      <trkpt lat="47.18764" lon="-1.66128">
        <ele>14</ele>
        <time>2011-11-13T09:35:33Z</time>
      </trkpt>
      <trkpt lat="47.18773" lon="-1.66151">
        <ele>14</ele>
        <time>2011-11-13T09:35:44Z</time>
      </trkpt>
      <trkpt lat="47.18771" lon="-1.66176">
        <ele>14</ele>
        <time>2011-11-13T09:36:10Z</time>
      </trkpt>
      <trkpt lat="47.18763" lon="-1.66197">
        <ele>13</ele>
        <time>2011-11-13T09:36:26Z</time>
      </trkpt>
      <trkpt lat="47.18754" lon="-1.66221">
        <ele>13</ele>
        <time>2011-11-13T09:36:55Z</time>
      </trkpt>
      <trkpt lat="47.18765" lon="-1.66241">
        <ele>13</ele>
        <time>2011-11-13T09:37:12Z</time>
      </trkpt>
      <trkpt lat="47.18774" lon="-1.66261">
        <ele>11</ele>
        <time>2011-11-13T09:37:38Z</time>
      </trkpt>
      <trkpt lat="47.1877" lon="-1.66287">
        <ele>11</ele>
        <time>2011-11-13T09:38:02Z</time>
      </trkpt>
      <trkpt lat="47.18771" lon="-1.66312">
        <ele>11</ele>
        <time>2011-11-13T09:38:20Z</time>
      </trkpt>
      <trkpt lat="47.18771" lon="-1.66339">
        <ele>10</ele>
        <time>2011-11-13T09:38:42Z</time>
      </trkpt>
      <trkpt lat="47.1877" lon="-1.66364">
        <ele>9</ele>
        <time>2011-11-13T09:39:02Z</time>
      </trkpt>
      <trkpt lat="47.18772" lon="-1.66391">
        <ele>9</ele>
        <time>2011-11-13T09:39:20Z</time>
      </trkpt>
      <trkpt lat="47.1876" lon="-1.66408">
        <ele>10</ele>
        <time>2011-11-13T09:39:32Z</time>
      </trkpt>
      <trkpt lat="47.18753" lon="-1.66432">
        <ele>9</ele>
        <time>2011-11-13T09:39:53Z</time>
      </trkpt>
      <trkpt lat="47.18754" lon="-1.66458">
        <ele>8</ele>
        <time>2011-11-13T09:40:10Z</time>
      </trkpt>
      <trkpt lat="47.18761" lon="-1.66481">
        <ele>8</ele>
        <time>2011-11-13T09:40:29Z</time>
      </trkpt>
      <trkpt lat="47.18766" lon="-1.66505">
        <ele>7</ele>
        <time>2011-11-13T09:40:46Z</time>
      </trkpt>
      <trkpt lat="47.18768" lon="-1.66531">
        <ele>7</ele>
        <time>2011-11-13T09:41:04Z</time>
      </trkpt>
      <trkpt lat="47.1877" lon="-1.66555">
        <ele>7</ele>
        <time>2011-11-13T09:41:20Z</time>
      </trkpt>
      <trkpt lat="47.18776" lon="-1.6658">
        <ele>7</ele>
        <time>2011-11-13T09:41:48Z</time>
      </trkpt>
      <trkpt lat="47.18778" lon="-1.66605">
        <ele>7</ele>
        <time>2011-11-13T09:42:05Z</time>
      </trkpt>
      <trkpt lat="47.18782" lon="-1.6663">
        <ele>8</ele>
        <time>2011-11-13T09:42:34Z</time>
      </trkpt>
      <trkpt lat="47.18785" lon="-1.66656">
        <ele>8</ele>
        <time>2011-11-13T09:42:57Z</time>
      </trkpt>
      <trkpt lat="47.18787" lon="-1.66682">
        <ele>8</ele>
        <time>2011-11-13T09:43:26Z</time>
      </trkpt>
      <trkpt lat="47.18791" lon="-1.66707">
        <ele>8</ele>
        <time>2011-11-13T09:43:44Z</time>
      </trkpt>
      <trkpt lat="47.18794" lon="-1.66732">
        <ele>8</ele>
        <time>2011-11-13T09:44:03Z</time>
      </trkpt>
      <trkpt lat="47.18801" lon="-1.66755">
        <ele>9</ele>
        <time>2011-11-13T09:44:18Z</time>
      </trkpt>
      <trkpt lat="47.18806" lon="-1.66779">
        <ele>9</ele>
        <time>2011-11-13T09:44:36Z</time>
      </trkpt>
      <trkpt lat="47.18812" lon="-1.66803">
        <ele>9</ele>
        <time>2011-11-13T09:44:54Z</time>
      </trkpt>
      <trkpt lat="47.18822" lon="-1.66824">
        <ele>8</ele>
        <time>2011-11-13T09:45:15Z</time>
      </trkpt>
      <trkpt lat="47.18828" lon="-1.66848">
        <ele>10</ele>
        <time>2011-11-13T09:45:33Z</time>
      </trkpt>
      <trkpt lat="47.18833" lon="-1.66872">
        <ele>12</ele>
        <time>2011-11-13T09:45:54Z</time>
      </trkpt>
      <trkpt lat="47.18831" lon="-1.66899">
        <ele>13</ele>
        <time>2011-11-13T09:46:13Z</time>
      </trkpt>
      <trkpt lat="47.18843" lon="-1.66918">
        <ele>11</ele>
        <time>2011-11-13T09:46:27Z</time>
      </trkpt>
      <trkpt lat="47.18844" lon="-1.66943">
        <ele>10</ele>
        <time>2011-11-13T09:46:45Z</time>
      </trkpt>
      <trkpt lat="47.18851" lon="-1.66967">
        <ele>11</ele>
        <time>2011-11-13T09:46:59Z</time>
      </trkpt>
      <trkpt lat="47.18851" lon="-1.66993">
        <ele>13</ele>
        <time>2011-11-13T09:47:13Z</time>
      </trkpt>
      <trkpt lat="47.1885" lon="-1.67018">
        <ele>14</ele>
        <time>2011-11-13T09:47:33Z</time>
      </trkpt>
      <trkpt lat="47.18858" lon="-1.67042">
        <ele>14</ele>
        <time>2011-11-13T09:47:48Z</time>
      </trkpt>
      <trkpt lat="47.18863" lon="-1.67067">
        <ele>14</ele>
        <time>2011-11-13T09:48:20Z</time>
      </trkpt>
      <trkpt lat="47.18863" lon="-1.67093">
        <ele>16</ele>
        <time>2011-11-13T09:48:39Z</time>
      </trkpt>
      <trkpt lat="47.18855" lon="-1.67115">
        <ele>17</ele>
        <time>2011-11-13T09:49:01Z</time>
      </trkpt>
      <trkpt lat="47.18857" lon="-1.67141">
        <ele>17</ele>
        <time>2011-11-13T09:49:25Z</time>
      </trkpt>
      <trkpt lat="47.18862" lon="-1.67165">
        <ele>18</ele>
        <time>2011-11-13T09:49:49Z</time>
      </trkpt>
      <trkpt lat="47.18857" lon="-1.6719">
        <ele>21</ele>
        <time>2011-11-13T09:50:15Z</time>
      </trkpt>
      <trkpt lat="47.18851" lon="-1.67214">
        <ele>22</ele>
        <time>2011-11-13T09:50:39Z</time>
      </trkpt>
      <trkpt lat="47.18851" lon="-1.67239">
        <ele>24</ele>
        <time>2011-11-13T09:51:04Z</time>
      </trkpt>
      <trkpt lat="47.18855" lon="-1.67265">
        <ele>26</ele>
        <time>2011-11-13T09:51:26Z</time>
      </trkpt>
      <trkpt lat="47.18861" lon="-1.67289">
        <ele>26</ele>
        <time>2011-11-13T09:51:46Z</time>
      </trkpt>
      <trkpt lat="47.18865" lon="-1.67313">
        <ele>26</ele>
        <time>2011-11-13T09:52:07Z</time>
      </trkpt>
      <trkpt lat="47.18872" lon="-1.67336">
        <ele>28</ele>
        <time>2011-11-13T09:52:18Z</time>
      </trkpt>
      <trkpt lat="47.1888" lon="-1.67359">
        <ele>27</ele>
        <time>2011-11-13T09:52:34Z</time>
      </trkpt>
      <trkpt lat="47.18885" lon="-1.67382">
        <ele>27</ele>
        <time>2011-11-13T09:52:50Z</time>
      </trkpt>
      <trkpt lat="47.18893" lon="-1.67405">
        <ele>27</ele>
        <time>2011-11-13T09:53:07Z</time>
      </trkpt>
      <trkpt lat="47.18901" lon="-1.67429">
        <ele>28</ele>
        <time>2011-11-13T09:53:28Z</time>
      </trkpt>
      <trkpt lat="47.18915" lon="-1.67446">
        <ele>29</ele>
        <time>2011-11-13T09:53:51Z</time>
      </trkpt>
      <trkpt lat="47.18919" lon="-1.67471">
        <ele>21</ele>
        <time>2011-11-13T09:55:22Z</time>
      </trkpt>
      <trkpt lat="47.18918" lon="-1.67496">
        <ele>27</ele>
        <time>2011-11-13T09:55:44Z</time>
      </trkpt>
      <trkpt lat="47.1892" lon="-1.67522">
        <ele>23</ele>
        <time>2011-11-13T09:55:58Z</time>
      </trkpt>
      <trkpt lat="47.18921" lon="-1.67547">
        <ele>22</ele>
        <time>2011-11-13T09:56:19Z</time>
      </trkpt>
      <trkpt lat="47.18932" lon="-1.67568">
        <ele>23</ele>
        <time>2011-11-13T09:56:35Z</time>
      </trkpt>
      <trkpt lat="47.18933" lon="-1.67594">
        <ele>24</ele>
        <time>2011-11-13T09:57:05Z</time>
      </trkpt>
      <trkpt lat="47.18927" lon="-1.67619">
        <ele>23</ele>
        <time>2011-11-13T09:57:43Z</time>
      </trkpt>
      <trkpt lat="47.18925" lon="-1.67644">
        <ele>25</ele>
        <time>2011-11-13T09:58:56Z</time>
      </trkpt>
      <trkpt lat="47.18935" lon="-1.67666">
        <ele>25</ele>
        <time>2011-11-13T09:59:44Z</time>
      </trkpt>
      <trkpt lat="47.18934" lon="-1.67692">
        <ele>24</ele>
        <time>2011-11-13T10:00:06Z</time>
      </trkpt>
      <trkpt lat="47.1892" lon="-1.67708">
        <ele>24</ele>
        <time>2011-11-13T10:00:33Z</time>
      </trkpt>
      <trkpt lat="47.18905" lon="-1.67722">
        <ele>33</ele>
        <time>2011-11-13T10:01:02Z</time>
      </trkpt>
      <trkpt lat="47.18908" lon="-1.67748">
        <ele>32</ele>
        <time>2011-11-13T10:01:30Z</time>
      </trkpt>
      <trkpt lat="47.18911" lon="-1.67774">
        <ele>32</ele>
        <time>2011-11-13T10:01:50Z</time>
      </trkpt>
      <trkpt lat="47.18915" lon="-1.67799">
        <ele>32</ele>
        <time>2011-11-13T10:02:07Z</time>
      </trkpt>
      <trkpt lat="47.18917" lon="-1.67824">
        <ele>27</ele>
        <time>2011-11-13T10:02:25Z</time>
      </trkpt>
      <trkpt lat="47.18917" lon="-1.67849">
        <ele>27</ele>
        <time>2011-11-13T10:02:43Z</time>
      </trkpt>
      <trkpt lat="47.18919" lon="-1.67875">
        <ele>27</ele>
        <time>2011-11-13T10:02:59Z</time>
      </trkpt>
      <trkpt lat="47.18936" lon="-1.67874">
        <ele>26</ele>
        <time>2011-11-13T10:03:20Z</time>
      </trkpt>
      <trkpt lat="47.18953" lon="-1.6788">
        <ele>26</ele>
        <time>2011-11-13T10:03:35Z</time>
      </trkpt>
      <trkpt lat="47.18965" lon="-1.67898">
        <ele>25</ele>
        <time>2011-11-13T10:03:49Z</time>
      </trkpt>
      <trkpt lat="47.18975" lon="-1.67919">
        <ele>28</ele>
        <time>2011-11-13T10:04:11Z</time>
      </trkpt>
      <trkpt lat="47.18987" lon="-1.67938">
        <ele>28</ele>
        <time>2011-11-13T10:04:44Z</time>
      </trkpt>
      <trkpt lat="47.1898" lon="-1.67961">
        <ele>30</ele>
        <time>2011-11-13T10:05:22Z</time>
      </trkpt>
      <trkpt lat="47.18981" lon="-1.67986">
        <ele>31</ele>
        <time>2011-11-13T10:05:58Z</time>
      </trkpt>
      <trkpt lat="47.1899" lon="-1.68009">
        <ele>33</ele>
        <time>2011-11-13T10:06:22Z</time>
      </trkpt>
      <trkpt lat="47.19006" lon="-1.6802">
        <ele>29</ele>
        <time>2011-11-13T10:06:46Z</time>
      </trkpt>
      <trkpt lat="47.19024" lon="-1.68022">
        <ele>29</ele>
        <time>2011-11-13T10:07:02Z</time>
      </trkpt>
      <trkpt lat="47.19041" lon="-1.68027">
        <ele>27</ele>
        <time>2011-11-13T10:07:19Z</time>
      </trkpt>
      <trkpt lat="47.19057" lon="-1.68033">
        <ele>26</ele>
        <time>2011-11-13T10:07:35Z</time>
      </trkpt>
      <trkpt lat="47.19074" lon="-1.68037">
        <ele>26</ele>
        <time>2011-11-13T10:07:51Z</time>
      </trkpt>
      <trkpt lat="47.19088" lon="-1.68053">
        <ele>19</ele>
        <time>2011-11-13T10:08:19Z</time>
      </trkpt>
      <trkpt lat="47.19097" lon="-1.68076">
        <ele>22</ele>
        <time>2011-11-13T10:08:39Z</time>
      </trkpt>
      <trkpt lat="47.19103" lon="-1.68099">
        <ele>24</ele>
        <time>2011-11-13T10:08:56Z</time>
      </trkpt>
      <trkpt lat="47.19109" lon="-1.68124">
        <ele>23</ele>
        <time>2011-11-13T10:09:13Z</time>
      </trkpt>
      <trkpt lat="47.19113" lon="-1.68148">
        <ele>24</ele>
        <time>2011-11-13T10:09:29Z</time>
      </trkpt>
      <trkpt lat="47.19112" lon="-1.68174">
        <ele>27</ele>
        <time>2011-11-13T10:09:55Z</time>
      </trkpt>
      <trkpt lat="47.19108" lon="-1.682">
        <ele>27</ele>
        <time>2011-11-13T10:10:13Z</time>
      </trkpt>
      <trkpt lat="47.19115" lon="-1.68222">
        <ele>27</ele>
        <time>2011-11-13T10:10:29Z</time>
      </trkpt>
      <trkpt lat="47.19121" lon="-1.68246">
        <ele>27</ele>
        <time>2011-11-13T10:10:41Z</time>
      </trkpt>
      <trkpt lat="47.19135" lon="-1.6826">
        <ele>28</ele>
        <time>2011-11-13T10:10:55Z</time>
      </trkpt>
      <trkpt lat="47.19145" lon="-1.68281">
        <ele>28</ele>
        <time>2011-11-13T10:11:39Z</time>
      </trkpt>
      <trkpt lat="47.19151" lon="-1.68304">
        <ele>29</ele>
        <time>2011-11-13T10:11:58Z</time>
      </trkpt>
      <trkpt lat="47.1915" lon="-1.6833">
        <ele>29</ele>
        <time>2011-11-13T10:12:21Z</time>
      </trkpt>
      <trkpt lat="47.19152" lon="-1.68356">
        <ele>31</ele>
        <time>2011-11-13T10:12:37Z</time>
      </trkpt>
      <trkpt lat="47.19153" lon="-1.68381">
        <ele>32</ele>
        <time>2011-11-13T10:12:52Z</time>
      </trkpt>
      <trkpt lat="47.1915" lon="-1.68406">
        <ele>32</ele>
        <time>2011-11-13T10:13:08Z</time>
      </trkpt>
      <trkpt lat="47.19152" lon="-1.68432">
        <ele>33</ele>
        <time>2011-11-13T10:13:24Z</time>
      </trkpt>
      <trkpt lat="47.19155" lon="-1.68458">
        <ele>33</ele>
        <time>2011-11-13T10:13:50Z</time>
      </trkpt>
      <trkpt lat="47.19168" lon="-1.68477">
        <ele>26</ele>
        <time>2011-11-13T10:14:11Z</time>
      </trkpt>
      <trkpt lat="47.19177" lon="-1.68497">
        <ele>28</ele>
        <time>2011-11-13T10:14:23Z</time>
      </trkpt>
      <trkpt lat="47.19177" lon="-1.68523">
        <ele>28</ele>
        <time>2011-11-13T10:14:45Z</time>
      </trkpt>
      <trkpt lat="47.19178" lon="-1.68547">
        <ele>28</ele>
        <time>2011-11-13T10:14:59Z</time>
      </trkpt>
      <trkpt lat="47.19176" lon="-1.68572">
        <ele>31</ele>
        <time>2011-11-13T10:15:17Z</time>
      </trkpt>
      <trkpt lat="47.19171" lon="-1.68596">
        <ele>33</ele>
        <time>2011-11-13T10:15:36Z</time>
      </trkpt>
      <trkpt lat="47.19176" lon="-1.6862">
        <ele>31</ele>
        <time>2011-11-13T10:15:48Z</time>
      </trkpt>
      <trkpt lat="47.19175" lon="-1.68645">
        <ele>32</ele>
        <time>2011-11-13T10:16:43Z</time>
      </trkpt>
      <trkpt lat="47.19163" lon="-1.68663">
        <ele>35</ele>
        <time>2011-11-13T10:17:01Z</time>
      </trkpt>
      <trkpt lat="47.19175" lon="-1.68681">
        <ele>33</ele>
        <time>2011-11-13T10:17:26Z</time>
      </trkpt>
      <trkpt lat="47.19188" lon="-1.68697">
        <ele>31</ele>
        <time>2011-11-13T10:17:43Z</time>
      </trkpt>
      <trkpt lat="47.19202" lon="-1.68713">
        <ele>31</ele>
        <time>2011-11-13T10:17:58Z</time>
      </trkpt>
      <trkpt lat="47.19216" lon="-1.68729">
        <ele>30</ele>
        <time>2011-11-13T10:18:14Z</time>
      </trkpt>
      <trkpt lat="47.19231" lon="-1.68743">
        <ele>29</ele>
        <time>2011-11-13T10:18:39Z</time>
      </trkpt>
      <trkpt lat="47.19238" lon="-1.68767">
        <ele>30</ele>
        <time>2011-11-13T10:18:54Z</time>
      </trkpt>
      <trkpt lat="47.19239" lon="-1.68793">
        <ele>31</ele>
        <time>2011-11-13T10:19:09Z</time>
      </trkpt>
      <trkpt lat="47.19235" lon="-1.68817">
        <ele>31</ele>
        <time>2011-11-13T10:19:25Z</time>
      </trkpt>
      <trkpt lat="47.19242" lon="-1.6884">
        <ele>31</ele>
        <time>2011-11-13T10:19:39Z</time>
      </trkpt>
      <trkpt lat="47.19251" lon="-1.68861">
        <ele>28</ele>
        <time>2011-11-13T10:19:57Z</time>
      </trkpt>
      <trkpt lat="47.19264" lon="-1.6888">
        <ele>28</ele>
        <time>2011-11-13T10:20:15Z</time>
      </trkpt>
      <trkpt lat="47.19272" lon="-1.68903">
        <ele>29</ele>
        <time>2011-11-13T10:20:33Z</time>
      </trkpt>
      <trkpt lat="47.19285" lon="-1.68921">
        <ele>29</ele>
        <time>2011-11-13T10:21:39Z</time>
      </trkpt>
      <trkpt lat="47.19295" lon="-1.68942">
        <ele>29</ele>
        <time>2011-11-13T10:21:51Z</time>
      </trkpt>
      <trkpt lat="47.19305" lon="-1.68961">
        <ele>29</ele>
        <time>2011-11-13T10:22:03Z</time>
      </trkpt>
      <trkpt lat="47.19314" lon="-1.68982">
        <ele>29</ele>
        <time>2011-11-13T10:22:14Z</time>
      </trkpt>
      <trkpt lat="47.19323" lon="-1.69004">
        <ele>29</ele>
        <time>2011-11-13T10:22:28Z</time>
      </trkpt>
      <trkpt lat="47.19336" lon="-1.6902">
        <ele>23</ele>
        <time>2011-11-13T10:22:42Z</time>
      </trkpt>
      <trkpt lat="47.19323" lon="-1.69031">
        <ele>29</ele>
        <time>2011-11-13T10:22:54Z</time>
      </trkpt>
      <trkpt lat="47.19307" lon="-1.69038">
        <ele>29</ele>
        <time>2011-11-13T10:23:03Z</time>
      </trkpt>
      <trkpt lat="47.19291" lon="-1.69048">
        <ele>29</ele>
        <time>2011-11-13T10:23:13Z</time>
      </trkpt>
      <trkpt lat="47.19275" lon="-1.69059">
        <ele>30</ele>
        <time>2011-11-13T10:23:24Z</time>
      </trkpt>
      <trkpt lat="47.1926" lon="-1.6907">
        <ele>30</ele>
        <time>2011-11-13T10:23:37Z</time>
      </trkpt>
      <trkpt lat="47.19246" lon="-1.69083">
        <ele>31</ele>
        <time>2011-11-13T10:23:53Z</time>
      </trkpt>
      <trkpt lat="47.19231" lon="-1.69097">
        <ele>31</ele>
        <time>2011-11-13T10:24:04Z</time>
      </trkpt>
      <trkpt lat="47.19216" lon="-1.6911">
        <ele>31</ele>
        <time>2011-11-13T10:24:16Z</time>
      </trkpt>
      <trkpt lat="47.19203" lon="-1.69127">
        <ele>31</ele>
        <time>2011-11-13T10:24:56Z</time>
      </trkpt>
      <trkpt lat="47.19189" lon="-1.69141">
        <ele>31</ele>
        <time>2011-11-13T10:25:10Z</time>
      </trkpt>
      <trkpt lat="47.19173" lon="-1.69154">
        <ele>31</ele>
        <time>2011-11-13T10:25:19Z</time>
      </trkpt>
      <trkpt lat="47.19159" lon="-1.69165">
        <ele>31</ele>
        <time>2011-11-13T10:25:32Z</time>
      </trkpt>
      <trkpt lat="47.19145" lon="-1.6918">
        <ele>30</ele>
        <time>2011-11-13T10:25:44Z</time>
      </trkpt>
      <trkpt lat="47.19132" lon="-1.69195">
        <ele>30</ele>
        <time>2011-11-13T10:25:56Z</time>
      </trkpt>
      <trkpt lat="47.19116" lon="-1.69207">
        <ele>30</ele>
        <time>2011-11-13T10:26:12Z</time>
      </trkpt>
      <trkpt lat="47.19101" lon="-1.69219">
        <ele>29</ele>
        <time>2011-11-13T10:26:24Z</time>
      </trkpt>
      <trkpt lat="47.19085" lon="-1.69231">
        <ele>29</ele>
        <time>2011-11-13T10:26:41Z</time>
      </trkpt>
      <trkpt lat="47.19069" lon="-1.6923">
        <ele>28</ele>
        <time>2011-11-13T10:26:52Z</time>
      </trkpt>
      <trkpt lat="47.19053" lon="-1.69242">
        <ele>28</ele>
        <time>2011-11-13T10:27:05Z</time>
      </trkpt>
      <trkpt lat="47.19036" lon="-1.69247">
        <ele>28</ele>
        <time>2011-11-13T10:27:18Z</time>
      </trkpt>
      <trkpt lat="47.1902" lon="-1.69254">
        <ele>26</ele>
        <time>2011-11-13T10:27:33Z</time>
      </trkpt>
      <trkpt lat="47.19007" lon="-1.69267">
        <ele>26</ele>
        <time>2011-11-13T10:27:52Z</time>
      </trkpt>
      <trkpt lat="47.18992" lon="-1.69251">
        <ele>25</ele>
        <time>2011-11-13T10:28:18Z</time>
      </trkpt>
      <trkpt lat="47.18977" lon="-1.69263">
        <ele>24</ele>
        <time>2011-11-13T10:29:56Z</time>
      </trkpt>
      <trkpt lat="47.1896" lon="-1.69266">
        <ele>24</ele>
        <time>2011-11-13T10:30:11Z</time>
      </trkpt>
      <trkpt lat="47.18944" lon="-1.69256">
        <ele>23</ele>
        <time>2011-11-13T10:30:28Z</time>
      </trkpt>
      <trkpt lat="47.18927" lon="-1.69261">
        <ele>23</ele>
        <time>2011-11-13T10:30:40Z</time>
      </trkpt>
      <trkpt lat="47.1891" lon="-1.69267">
        <ele>21</ele>
        <time>2011-11-13T10:31:03Z</time>
      </trkpt>
      <trkpt lat="47.18894" lon="-1.69275">
        <ele>21</ele>
        <time>2011-11-13T10:31:25Z</time>
      </trkpt>
      <trkpt lat="47.18878" lon="-1.69285">
        <ele>21</ele>
        <time>2011-11-13T10:31:41Z</time>
      </trkpt>
      <trkpt lat="47.18862" lon="-1.69293">
        <ele>21</ele>
        <time>2011-11-13T10:31:52Z</time>
      </trkpt>
      <trkpt lat="47.18845" lon="-1.693">
        <ele>21</ele>
        <time>2011-11-13T10:32:13Z</time>
      </trkpt>
      <trkpt lat="47.1883" lon="-1.6931">
        <ele>20</ele>
        <time>2011-11-13T10:32:27Z</time>
      </trkpt>
      <trkpt lat="47.18813" lon="-1.69318">
        <ele>21</ele>
        <time>2011-11-13T10:32:44Z</time>
      </trkpt>
      <trkpt lat="47.18796" lon="-1.69322">
        <ele>21</ele>
        <time>2011-11-13T10:32:56Z</time>
      </trkpt>
      <trkpt lat="47.18779" lon="-1.69329">
        <ele>21</ele>
        <time>2011-11-13T10:33:11Z</time>
      </trkpt>
      <trkpt lat="47.18768" lon="-1.69347">
        <ele>22</ele>
        <time>2011-11-13T10:33:23Z</time>
      </trkpt>
      <trkpt lat="47.18757" lon="-1.69368">
        <ele>23</ele>
        <time>2011-11-13T10:33:39Z</time>
      </trkpt>
      <trkpt lat="47.18743" lon="-1.69382">
        <ele>24</ele>
        <time>2011-11-13T10:33:52Z</time>
      </trkpt>
      <trkpt lat="47.18728" lon="-1.69394">
        <ele>24</ele>
        <time>2011-11-13T10:34:03Z</time>
      </trkpt>
      <trkpt lat="47.18711" lon="-1.69404">
        <ele>24</ele>
        <time>2011-11-13T10:34:17Z</time>
      </trkpt>
      <trkpt lat="47.18695" lon="-1.69411">
        <ele>24</ele>
        <time>2011-11-13T10:34:35Z</time>
      </trkpt>
      <trkpt lat="47.1868" lon="-1.69422">
        <ele>25</ele>
        <time>2011-11-13T10:34:50Z</time>
      </trkpt>
      <trkpt lat="47.18671" lon="-1.69443">
        <ele>25</ele>
        <time>2011-11-13T10:35:07Z</time>
      </trkpt>
      <trkpt lat="47.18676" lon="-1.69467">
        <ele>26</ele>
        <time>2011-11-13T10:35:19Z</time>
      </trkpt>
      <trkpt lat="47.18682" lon="-1.69491">
        <ele>26</ele>
        <time>2011-11-13T10:35:35Z</time>
      </trkpt>
      <trkpt lat="47.18671" lon="-1.6951">
        <ele>26</ele>
        <time>2011-11-13T10:35:53Z</time>
      </trkpt>
      <trkpt lat="47.18655" lon="-1.69523">
        <ele>26</ele>
        <time>2011-11-13T10:36:08Z</time>
      </trkpt>
      <trkpt lat="47.1864" lon="-1.69536">
        <ele>26</ele>
        <time>2011-11-13T10:36:22Z</time>
      </trkpt>
      <trkpt lat="47.18628" lon="-1.69554">
        <ele>26</ele>
        <time>2011-11-13T10:36:37Z</time>
      </trkpt>
      <trkpt lat="47.18613" lon="-1.69566">
        <ele>27</ele>
        <time>2011-11-13T10:36:52Z</time>
      </trkpt>
      <trkpt lat="47.18599" lon="-1.69582">
        <ele>27</ele>
        <time>2011-11-13T10:37:09Z</time>
      </trkpt>
      <trkpt lat="47.18584" lon="-1.69596">
        <ele>27</ele>
        <time>2011-11-13T10:37:25Z</time>
      </trkpt>
      <trkpt lat="47.18573" lon="-1.69577">
        <ele>27</ele>
        <time>2011-11-13T10:37:46Z</time>
      </trkpt>
      <trkpt lat="47.18564" lon="-1.69555">
        <ele>27</ele>
        <time>2011-11-13T10:38:04Z</time>
      </trkpt>
      <trkpt lat="47.18549" lon="-1.69543">
        <ele>27</ele>
        <time>2011-11-13T10:38:15Z</time>
      </trkpt>
      <trkpt lat="47.18533" lon="-1.69534">
        <ele>28</ele>
        <time>2011-11-13T10:38:26Z</time>
      </trkpt>
      <trkpt lat="47.1852" lon="-1.69518">
        <ele>28</ele>
        <time>2011-11-13T10:38:40Z</time>
      </trkpt>
      <trkpt lat="47.18509" lon="-1.69497">
        <ele>29</ele>
        <time>2011-11-13T10:38:56Z</time>
      </trkpt>
      <trkpt lat="47.185" lon="-1.69474">
        <ele>28</ele>
        <time>2011-11-13T10:39:12Z</time>
      </trkpt>
      <trkpt lat="47.18489" lon="-1.69454">
        <ele>29</ele>
        <time>2011-11-13T10:39:27Z</time>
      </trkpt>
      <trkpt lat="47.18476" lon="-1.69436">
        <ele>29</ele>
        <time>2011-11-13T10:39:40Z</time>
      </trkpt>
      <trkpt lat="47.18468" lon="-1.69414">
        <ele>29</ele>
        <time>2011-11-13T10:39:56Z</time>
      </trkpt>
      <trkpt lat="47.18463" lon="-1.69389">
        <ele>29</ele>
        <time>2011-11-13T10:40:15Z</time>
      </trkpt>
      <trkpt lat="47.1846" lon="-1.69363">
        <ele>29</ele>
        <time>2011-11-13T10:40:30Z</time>
      </trkpt>
      <trkpt lat="47.18444" lon="-1.69354">
        <ele>29</ele>
        <time>2011-11-13T10:40:41Z</time>
      </trkpt>
      <trkpt lat="47.18432" lon="-1.69334">
        <ele>30</ele>
        <time>2011-11-13T10:40:56Z</time>
      </trkpt>
      <trkpt lat="47.18418" lon="-1.6932">
        <ele>30</ele>
        <time>2011-11-13T10:41:09Z</time>
      </trkpt>
      <trkpt lat="47.18402" lon="-1.69312">
        <ele>30</ele>
        <time>2011-11-13T10:41:25Z</time>
      </trkpt>
      <trkpt lat="47.18391" lon="-1.69292">
        <ele>30</ele>
        <time>2011-11-13T10:41:41Z</time>
      </trkpt>
      <trkpt lat="47.18374" lon="-1.69288">
        <ele>30</ele>
        <time>2011-11-13T10:42:20Z</time>
      </trkpt>
      <trkpt lat="47.18357" lon="-1.69284">
        <ele>30</ele>
        <time>2011-11-13T10:42:43Z</time>
      </trkpt>
      <trkpt lat="47.18339" lon="-1.69282">
        <ele>30</ele>
        <time>2011-11-13T10:42:58Z</time>
      </trkpt>
      <trkpt lat="47.18322" lon="-1.69279">
        <ele>30</ele>
        <time>2011-11-13T10:43:13Z</time>
      </trkpt>
      <trkpt lat="47.18306" lon="-1.69269">
        <ele>30</ele>
        <time>2011-11-13T10:43:31Z</time>
      </trkpt>
      <trkpt lat="47.18292" lon="-1.69252">
        <ele>30</ele>
        <time>2011-11-13T10:43:47Z</time>
      </trkpt>
      <trkpt lat="47.1828" lon="-1.69233">
        <ele>30</ele>
        <time>2011-11-13T10:44:05Z</time>
      </trkpt>
      <trkpt lat="47.18268" lon="-1.69215">
        <ele>30</ele>
        <time>2011-11-13T10:44:22Z</time>
      </trkpt>
      <trkpt lat="47.18253" lon="-1.69202">
        <ele>31</ele>
        <time>2011-11-13T10:44:36Z</time>
      </trkpt>
      <trkpt lat="47.18237" lon="-1.69192">
        <ele>31</ele>
        <time>2011-11-13T10:44:52Z</time>
      </trkpt>
      <trkpt lat="47.18224" lon="-1.69174">
        <ele>31</ele>
        <time>2011-11-13T10:45:16Z</time>
      </trkpt>
      <trkpt lat="47.18217" lon="-1.6915">
        <ele>30</ele>
        <time>2011-11-13T10:45:35Z</time>
      </trkpt>
      <trkpt lat="47.18212" lon="-1.69125">
        <ele>30</ele>
        <time>2011-11-13T10:45:54Z</time>
      </trkpt>
      <trkpt lat="47.18199" lon="-1.6911">
        <ele>30</ele>
        <time>2011-11-13T10:46:07Z</time>
      </trkpt>
      <trkpt lat="47.18184" lon="-1.69097">
        <ele>30</ele>
        <time>2011-11-13T10:46:17Z</time>
      </trkpt>
      <trkpt lat="47.1817" lon="-1.69083">
        <ele>29</ele>
        <time>2011-11-13T10:46:28Z</time>
      </trkpt>
      <trkpt lat="47.18157" lon="-1.69068">
        <ele>28</ele>
        <time>2011-11-13T10:46:40Z</time>
      </trkpt>
      <trkpt lat="47.18153" lon="-1.69043">
        <ele>28</ele>
        <time>2011-11-13T10:46:59Z</time>
      </trkpt>
      <trkpt lat="47.18144" lon="-1.6902">
        <ele>27</ele>
        <time>2011-11-13T10:47:14Z</time>
      </trkpt>
      <trkpt lat="47.1814" lon="-1.68995">
        <ele>26</ele>
        <time>2011-11-13T10:47:30Z</time>
      </trkpt>
      <trkpt lat="47.18137" lon="-1.6897">
        <ele>26</ele>
        <time>2011-11-13T10:47:44Z</time>
      </trkpt>
      <trkpt lat="47.18129" lon="-1.68946">
        <ele>26</ele>
        <time>2011-11-13T10:48:01Z</time>
      </trkpt>
      <trkpt lat="47.18123" lon="-1.68922">
        <ele>26</ele>
        <time>2011-11-13T10:48:15Z</time>
      </trkpt>
      <trkpt lat="47.18116" lon="-1.68898">
        <ele>26</ele>
        <time>2011-11-13T10:48:29Z</time>
      </trkpt>
      <trkpt lat="47.18107" lon="-1.68875">
        <ele>26</ele>
        <time>2011-11-13T10:48:44Z</time>
      </trkpt>
      <trkpt lat="47.18101" lon="-1.68852">
        <ele>26</ele>
        <time>2011-11-13T10:48:59Z</time>
      </trkpt>
      <trkpt lat="47.18094" lon="-1.68829">
        <ele>27</ele>
        <time>2011-11-13T10:49:14Z</time>
      </trkpt>
      <trkpt lat="47.18085" lon="-1.68808">
        <ele>27</ele>
        <time>2011-11-13T10:49:30Z</time>
      </trkpt>
      <trkpt lat="47.18077" lon="-1.68786">
        <ele>28</ele>
        <time>2011-11-13T10:49:47Z</time>
      </trkpt>
      <trkpt lat="47.18068" lon="-1.68763">
        <ele>28</ele>
        <time>2011-11-13T10:50:04Z</time>
      </trkpt>
      <trkpt lat="47.18058" lon="-1.68743">
        <ele>29</ele>
        <time>2011-11-13T10:50:19Z</time>
      </trkpt>
      <trkpt lat="47.18049" lon="-1.6872">
        <ele>29</ele>
        <time>2011-11-13T10:50:35Z</time>
      </trkpt>
      <trkpt lat="47.1804" lon="-1.68699">
        <ele>29</ele>
        <time>2011-11-13T10:50:51Z</time>
      </trkpt>
      <trkpt lat="47.18031" lon="-1.68676">
        <ele>29</ele>
        <time>2011-11-13T10:51:08Z</time>
      </trkpt>
      <trkpt lat="47.18023" lon="-1.68653">
        <ele>30</ele>
        <time>2011-11-13T10:51:26Z</time>
      </trkpt>
      <trkpt lat="47.18012" lon="-1.68632">
        <ele>30</ele>
        <time>2011-11-13T10:51:41Z</time>
      </trkpt>
      <trkpt lat="47.18002" lon="-1.68612">
        <ele>30</ele>
        <time>2011-11-13T10:51:56Z</time>
      </trkpt>
      <trkpt lat="47.1799" lon="-1.68593">
        <ele>31</ele>
        <time>2011-11-13T10:52:11Z</time>
      </trkpt>
      <trkpt lat="47.1798" lon="-1.68573">
        <ele>31</ele>
        <time>2011-11-13T10:52:27Z</time>
      </trkpt>
      <trkpt lat="47.17969" lon="-1.68552">
        <ele>31</ele>
        <time>2011-11-13T10:52:43Z</time>
      </trkpt>
      <trkpt lat="47.17957" lon="-1.68534">
        <ele>32</ele>
        <time>2011-11-13T10:52:58Z</time>
      </trkpt>
      <trkpt lat="47.17947" lon="-1.68514">
        <ele>32</ele>
        <time>2011-11-13T10:53:14Z</time>
      </trkpt>
      <trkpt lat="47.17936" lon="-1.68493">
        <ele>33</ele>
        <time>2011-11-13T10:53:29Z</time>
      </trkpt>
      <trkpt lat="47.17923" lon="-1.68477">
        <ele>33</ele>
        <time>2011-11-13T10:53:42Z</time>
      </trkpt>
      <trkpt lat="47.1792" lon="-1.68452">
        <ele>33</ele>
        <time>2011-11-13T10:53:57Z</time>
      </trkpt>
      <trkpt lat="47.17909" lon="-1.68432">
        <ele>33</ele>
        <time>2011-11-13T10:55:27Z</time>
      </trkpt>
      <trkpt lat="47.17902" lon="-1.68409">
        <ele>33</ele>
        <time>2011-11-13T10:55:41Z</time>
      </trkpt>
      <trkpt lat="47.17894" lon="-1.68386">
        <ele>34</ele>
        <time>2011-11-13T10:55:56Z</time>
      </trkpt>
      <trkpt lat="47.17885" lon="-1.68365">
        <ele>34</ele>
        <time>2011-11-13T10:56:09Z</time>
      </trkpt>
      <trkpt lat="47.17872" lon="-1.68348">
        <ele>34</ele>
        <time>2011-11-13T10:56:25Z</time>
      </trkpt>
      <trkpt lat="47.17856" lon="-1.68336">
        <ele>35</ele>
        <time>2011-11-13T10:56:39Z</time>
      </trkpt>
      <trkpt lat="47.1784" lon="-1.68329">
        <ele>36</ele>
        <time>2011-11-13T10:56:52Z</time>
      </trkpt>
      <trkpt lat="47.17823" lon="-1.68324">
        <ele>36</ele>
        <time>2011-11-13T10:57:08Z</time>
      </trkpt>
      <trkpt lat="47.17806" lon="-1.68331">
        <ele>36</ele>
        <time>2011-11-13T10:57:18Z</time>
      </trkpt>
      <trkpt lat="47.1779" lon="-1.68331">
        <ele>36</ele>
        <time>2011-11-13T10:57:31Z</time>
      </trkpt>
      <trkpt lat="47.17773" lon="-1.68326">
        <ele>35</ele>
        <time>2011-11-13T10:57:42Z</time>
      </trkpt>
      <trkpt lat="47.17757" lon="-1.68318">
        <ele>35</ele>
        <time>2011-11-13T10:57:57Z</time>
      </trkpt>
      <trkpt lat="47.1775" lon="-1.68295">
        <ele>34</ele>
        <time>2011-11-13T10:58:19Z</time>
      </trkpt>
      <trkpt lat="47.17752" lon="-1.68269">
        <ele>35</ele>
        <time>2011-11-13T10:58:36Z</time>
      </trkpt>
      <trkpt lat="47.1775" lon="-1.68245">
        <ele>35</ele>
        <time>2011-11-13T10:58:53Z</time>
      </trkpt>
      <trkpt lat="47.17751" lon="-1.6822">
        <ele>36</ele>
        <time>2011-11-13T10:59:09Z</time>
      </trkpt>
      <trkpt lat="47.17757" lon="-1.68196">
        <ele>36</ele>
        <time>2011-11-13T10:59:24Z</time>
      </trkpt>
      <trkpt lat="47.17765" lon="-1.68173">
        <ele>36</ele>
        <time>2011-11-13T10:59:45Z</time>
      </trkpt>
      <trkpt lat="47.17772" lon="-1.6815">
        <ele>35</ele>
        <time>2011-11-13T11:00:00Z</time>
      </trkpt>
      <trkpt lat="47.17782" lon="-1.68129">
        <ele>35</ele>
        <time>2011-11-13T11:00:10Z</time>
      </trkpt>
      <trkpt lat="47.17784" lon="-1.68103">
        <ele>35</ele>
        <time>2011-11-13T11:00:23Z</time>
      </trkpt>
      <trkpt lat="47.17768" lon="-1.68098">
        <ele>35</ele>
        <time>2011-11-13T11:00:35Z</time>
      </trkpt>
      <trkpt lat="47.17751" lon="-1.68097">
        <ele>35</ele>
        <time>2011-11-13T11:00:50Z</time>
      </trkpt>
      <trkpt lat="47.17737" lon="-1.68082">
        <ele>34</ele>
        <time>2011-11-13T11:01:05Z</time>
      </trkpt>
      <trkpt lat="47.17732" lon="-1.68057">
        <ele>34</ele>
        <time>2011-11-13T11:01:22Z</time>
      </trkpt>
      <trkpt lat="47.17718" lon="-1.68042">
        <ele>34</ele>
        <time>2011-11-13T11:01:39Z</time>
      </trkpt>
      <trkpt lat="47.17702" lon="-1.6803">
        <ele>34</ele>
        <time>2011-11-13T11:01:59Z</time>
      </trkpt>
      <trkpt lat="47.1769" lon="-1.68011">
        <ele>34</ele>
        <time>2011-11-13T11:02:15Z</time>
      </trkpt>
      <trkpt lat="47.17685" lon="-1.67987">
        <ele>34</ele>
        <time>2011-11-13T11:02:33Z</time>
      </trkpt>
      <trkpt lat="47.17689" lon="-1.67963">
        <ele>34</ele>
        <time>2011-11-13T11:02:51Z</time>
      </trkpt>
      <trkpt lat="47.17692" lon="-1.67938">
        <ele>34</ele>
        <time>2011-11-13T11:03:04Z</time>
      </trkpt>
      <trkpt lat="47.17688" lon="-1.67913">
        <ele>34</ele>
        <time>2011-11-13T11:03:19Z</time>
      </trkpt>
      <trkpt lat="47.17683" lon="-1.67889">
        <ele>34</ele>
        <time>2011-11-13T11:03:36Z</time>
      </trkpt>
      <trkpt lat="47.17676" lon="-1.67864">
        <ele>34</ele>
        <time>2011-11-13T11:03:51Z</time>
      </trkpt>
      <trkpt lat="47.1767" lon="-1.6784">
        <ele>34</ele>
        <time>2011-11-13T11:04:08Z</time>
      </trkpt>
      <trkpt lat="47.17654" lon="-1.67832">
        <ele>34</ele>
        <time>2011-11-13T11:04:23Z</time>
      </trkpt>
      <trkpt lat="47.17648" lon="-1.67807">
        <ele>34</ele>
        <time>2011-11-13T11:04:45Z</time>
      </trkpt>
      <trkpt lat="47.17643" lon="-1.67783">
        <ele>33</ele>
        <time>2011-11-13T11:05:01Z</time>
      </trkpt>
      <trkpt lat="47.17636" lon="-1.67759">
        <ele>33</ele>
        <time>2011-11-13T11:05:18Z</time>
      </trkpt>
      <trkpt lat="47.17625" lon="-1.67738">
        <ele>34</ele>
        <time>2011-11-13T11:05:35Z</time>
      </trkpt>
      <trkpt lat="47.1762" lon="-1.67722">
        <ele>34</ele>
        <time>2011-11-13T11:06:23Z</time>
      </trkpt>
      <trkpt lat="47.1762" lon="-1.67722">
        <ele>34</ele>
        <time>2011-11-13T11:06:23Z</time>
      </trkpt>
    </trkseg>
  </trk>
</gpx>